Martin City, Montana
Current Conditions -  °F | °C
As of 4:05 AM on Wednesday 26 Nov 2014 (Local Time) from KGPI Reporting Station
Light Snow Light Snow  
Wind Chill: 31°   Ceiling: 300
Heat Index: 31°   Visibility: 0.5mi
Dew Point: 30°   Wind: 0mph
Humidity: 96%   Direction: NA
Pressure: 30.15"   Gusts: NA
Location:  48.39°N, 114.04°W
Report Text: KGPI 261105Z AUTO 00000KT 1/2SM -SN FZFG BKN003 OVC024 M01/M01 A3015 RMK AO2 P0000 T10061011
Loading
Personal Weather Stations






























Interactive Weather Map New forecast layout! Learn more

10-Day Weather Forecast

Advertisements
Track Severe Weather on mobile